sensor_id;sensor_type;location;lat;lon;timestamp;temperature;humidity
78461;SHT31;67755;51.986;5.696;2023-03-11T00:02:19;6.1;60.0
78461;SHT31;67755;51.986;5.696;2023-03-11T00:04:48;6.1;60.0
78461;SHT31;67755;51.986;5.696;2023-03-11T00:07:18;6.1;60.4
78461;SHT31;67755;51.986;5.696;2023-03-11T00:09:47;6.1;60.2
78461;SHT31;67755;51.986;5.696;2023-03-11T00:12:17;6.1;60.4
78461;SHT31;67755;51.986;5.696;2023-03-11T00:14:46;6.1;60.4
78461;SHT31;67755;51.986;5.696;2023-03-11T00:17:16;6.1;59.6
78461;SHT31;67755;51.986;5.696;2023-03-11T00:19:45;6.1;59.9
78461;SHT31;67755;51.986;5.696;2023-03-11T00:22:15;6.1;59.8
78461;SHT31;67755;51.986;5.696;2023-03-11T00:24:45;6.1;59.5
78461;SHT31;67755;51.986;5.696;2023-03-11T00:27:14;6.1;59.2
78461;SHT31;67755;51.986;5.696;2023-03-11T00:29:44;6.1;59.1
78461;SHT31;67755;51.986;5.696;2023-03-11T00:32:13;6.1;59.3
78461;SHT31;67755;51.986;5.696;2023-03-11T00:34:43;6.0;59.0
78461;SHT31;67755;51.986;5.696;2023-03-11T00:37:14;6.0;58.9
78461;SHT31;67755;51.986;5.696;2023-03-11T00:39:44;6.0;59.0
78461;SHT31;67755;51.986;5.696;2023-03-11T00:42:13;6.0;58.8
78461;SHT31;67755;51.986;5.696;2023-03-11T00:44:43;6.0;58.9
78461;SHT31;67755;51.986;5.696;2023-03-11T00:47:14;6.0;58.9
78461;SHT31;67755;51.986;5.696;2023-03-11T00:49:47;6.0;59.1
78461;SHT31;67755;51.986;5.696;2023-03-11T00:52:19;6.0;59.0
78461;SHT31;67755;51.986;5.696;2023-03-11T00:54:48;6.0;58.7
78461;SHT31;67755;51.986;5.696;2023-03-11T00:57:20;6.0;58.7
78461;SHT31;67755;51.986;5.696;2023-03-11T00:59:49;6.0;58.6
78461;SHT31;67755;51.986;5.696;2023-03-11T01:02:19;6.0;58.7
78461;SHT31;67755;51.986;5.696;2023-03-11T01:04:52;6.0;58.2
78461;SHT31;67755;51.986;5.696;2023-03-11T01:07:22;5.9;58.4
78461;SHT31;67755;51.986;5.696;2023-03-11T01:09:52;5.9;58.5
78461;SHT31;67755;51.986;5.696;2023-03-11T01:12:21;5.9;58.2
78461;SHT31;67755;51.986;5.696;2023-03-11T01:14:51;5.9;58.3
78461;SHT31;67755;51.986;5.696;2023-03-11T01:17:20;5.9;58.2
78461;SHT31;67755;51.986;5.696;2023-03-11T01:19:50;5.9;58.3
78461;SHT31;67755;51.986;5.696;2023-03-11T01:22:22;5.9;58.2
78461;SHT31;67755;51.986;5.696;2023-03-11T01:24:51;5.9;58.1
78461;SHT31;67755;51.986;5.696;2023-03-11T01:27:21;5.9;58.2
78461;SHT31;67755;51.986;5.696;2023-03-11T01:29:51;5.8;58.2
78461;SHT31;67755;51.986;5.696;2023-03-11T01:32:22;5.8;58.0
78461;SHT31;67755;51.986;5.696;2023-03-11T01:34:52;5.8;58.1
78461;SHT31;67755;51.986;5.696;2023-03-11T01:37:22;5.8;58.1
78461;SHT31;67755;51.986;5.696;2023-03-11T01:39:51;5.8;58.3
78461;SHT31;67755;51.986;5.696;2023-03-11T01:42:21;5.8;58.5
78461;SHT31;67755;51.986;5.696;2023-03-11T01:44:50;5.8;58.7
78461;SHT31;67755;51.986;5.696;2023-03-11T01:47:34;5.8;58.7
78461;SHT31;67755;51.986;5.696;2023-03-11T01:50:06;5.8;58.7
78461;SHT31;67755;51.986;5.696;2023-03-11T01:52:37;5.8;58.8
78461;SHT31;67755;51.986;5.696;2023-03-11T01:55:10;5.8;58.9
78461;SHT31;67755;51.986;5.696;2023-03-11T01:57:41;5.8;59.0
78461;SHT31;67755;51.986;5.696;2023-03-11T02:00:14;5.7;59.3
78461;SHT31;67755;51.986;5.696;2023-03-11T02:02:48;5.7;59.5
78461;SHT31;67755;51.986;5.696;2023-03-11T02:05:21;5.7;59.7
78461;SHT31;67755;51.986;5.696;2023-03-11T02:07:53;5.8;59.5
78461;SHT31;67755;51.986;5.696;2023-03-11T02:10:23;5.8;59.6
78461;SHT31;67755;51.986;5.696;2023-03-11T02:12:53;5.8;59.5
78461;SHT31;67755;51.986;5.696;2023-03-11T02:15:23;5.8;59.2
78461;SHT31;67755;51.986;5.696;2023-03-11T02:17:53;5.8;59.2
78461;SHT31;67755;51.986;5.696;2023-03-11T02:20:35;5.8;59.3
78461;SHT31;67755;51.986;5.696;2023-03-11T02:23:07;5.8;59.0
78461;SHT31;67755;51.986;5.696;2023-03-11T02:25:43;5.8;59.1
78461;SHT31;67755;51.986;5.696;2023-03-11T02:28:15;5.8;58.8
78461;SHT31;67755;51.986;5.696;2023-03-11T02:30:49;5.8;59.2
78461;SHT31;67755;51.986;5.696;2023-03-11T02:33:18;5.8;58.9
78461;SHT31;67755;51.986;5.696;2023-03-11T02:35:48;5.8;59.1
78461;SHT31;67755;51.986;5.696;2023-03-11T02:38:17;5.8;59.0
78461;SHT31;67755;51.986;5.696;2023-03-11T02:40:50;5.9;59.1
78461;SHT31;67755;51.986;5.696;2023-03-11T02:43:28;5.9;59.2
78461;SHT31;67755;51.986;5.696;2023-03-11T02:46:00;5.9;59.2
78461;SHT31;67755;51.986;5.696;2023-03-11T02:48:31;5.9;59.0
78461;SHT31;67755;51.986;5.696;2023-03-11T02:51:03;5.9;59.0
78461;SHT31;67755;51.986;5.696;2023-03-11T02:53:38;5.9;59.1
78461;SHT31;67755;51.986;5.696;2023-03-11T02:56:09;5.9;58.9
78461;SHT31;67755;51.986;5.696;2023-03-11T02:58:39;5.9;58.7
78461;SHT31;67755;51.986;5.696;2023-03-11T03:01:09;5.9;58.7
78461;SHT31;67755;51.986;5.696;2023-03-11T03:03:39;5.9;59.0
78461;SHT31;67755;51.986;5.696;2023-03-11T03:06:09;5.9;59.2
78461;SHT31;67755;51.986;5.696;2023-03-11T03:08:38;5.9;59.2
78461;SHT31;67755;51.986;5.696;2023-03-11T03:11:08;5.9;59.1
78461;SHT31;67755;51.986;5.696;2023-03-11T03:13:38;5.9;59.2
78461;SHT31;67755;51.986;5.696;2023-03-11T03:16:07;5.9;58.5
78461;SHT31;67755;51.986;5.696;2023-03-11T03:18:37;5.9;58.6
78461;SHT31;67755;51.986;5.696;2023-03-11T03:21:09;5.9;58.7
78461;SHT31;67755;51.986;5.696;2023-03-11T03:23:38;5.9;58.3
78461;SHT31;67755;51.986;5.696;2023-03-11T03:26:11;5.9;58.5
78461;SHT31;67755;51.986;5.696;2023-03-11T03:28:40;5.9;58.0
78461;SHT31;67755;51.986;5.696;2023-03-11T03:31:11;5.9;57.7
78461;SHT31;67755;51.986;5.696;2023-03-11T03:33:42;5.9;57.6
78461;SHT31;67755;51.986;5.696;2023-03-11T03:36:14;5.9;57.5
78461;SHT31;67755;51.986;5.696;2023-03-11T03:38:43;5.9;57.4
78461;SHT31;67755;51.986;5.696;2023-03-11T03:41:14;5.9;57.3
78461;SHT31;67755;51.986;5.696;2023-03-11T03:43:44;5.9;57.5
78461;SHT31;67755;51.986;5.696;2023-03-11T03:46:14;5.9;57.1
78461;SHT31;67755;51.986;5.696;2023-03-11T03:48:46;5.9;57.2
78461;SHT31;67755;51.986;5.696;2023-03-11T03:51:18;5.8;57.2
78461;SHT31;67755;51.986;5.696;2023-03-11T03:53:48;5.8;57.1
78461;SHT31;67755;51.986;5.696;2023-03-11T03:56:17;5.8;56.7
78461;SHT31;67755;51.986;5.696;2023-03-11T03:58:47;5.8;56.7
78461;SHT31;67755;51.986;5.696;2023-03-11T04:01:18;5.8;56.9
78461;SHT31;67755;51.986;5.696;2023-03-11T04:03:48;5.8;57.0
78461;SHT31;67755;51.986;5.696;2023-03-11T04:06:20;5.7;57.1
78461;SHT31;67755;51.986;5.696;2023-03-11T04:08:52;5.7;57.1
78461;SHT31;67755;51.986;5.696;2023-03-11T04:11:22;5.7;57.2
78461;SHT31;67755;51.986;5.696;2023-03-11T04:13:52;5.7;57.1
78461;SHT31;67755;51.986;5.696;2023-03-11T04:16:23;5.7;57.1
78461;SHT31;67755;51.986;5.696;2023-03-11T04:18:52;5.7;57.0
78461;SHT31;67755;51.986;5.696;2023-03-11T04:21:22;5.7;56.9
78461;SHT31;67755;51.986;5.696;2023-03-11T04:23:52;5.7;57.0
78461;SHT31;67755;51.986;5.696;2023-03-11T04:26:22;5.6;57.0
78461;SHT31;67755;51.986;5.696;2023-03-11T04:28:51;5.6;56.8
78461;SHT31;67755;51.986;5.696;2023-03-11T04:31:21;5.6;56.9
78461;SHT31;67755;51.986;5.696;2023-03-11T04:33:50;5.6;56.9
78461;SHT31;67755;51.986;5.696;2023-03-11T04:36:21;5.6;57.0
78461;SHT31;67755;51.986;5.696;2023-03-11T04:38:50;5.6;57.1
78461;SHT31;67755;51.986;5.696;2023-03-11T04:41:20;5.6;57.2
78461;SHT31;67755;51.986;5.696;2023-03-11T04:43:49;5.5;57.1
78461;SHT31;67755;51.986;5.696;2023-03-11T04:46:19;5.5;57.0
78461;SHT31;67755;51.986;5.696;2023-03-11T04:48:49;5.5;56.9
78461;SHT31;67755;51.986;5.696;2023-03-11T04:51:18;5.5;56.9
78461;SHT31;67755;51.986;5.696;2023-03-11T04:53:48;5.5;56.6
78461;SHT31;67755;51.986;5.696;2023-03-11T04:56:17;5.5;56.3
78461;SHT31;67755;51.986;5.696;2023-03-11T04:58:49;5.5;56.5
78461;SHT31;67755;51.986;5.696;2023-03-11T05:01:19;5.5;56.5
78461;SHT31;67755;51.986;5.696;2023-03-11T05:03:48;5.5;56.3
78461;SHT31;67755;51.986;5.696;2023-03-11T05:06:18;5.5;56.5
78461;SHT31;67755;51.986;5.696;2023-03-11T05:08:47;5.5;56.3
78461;SHT31;67755;51.986;5.696;2023-03-11T05:11:17;5.4;56.4
78461;SHT31;67755;51.986;5.696;2023-03-11T05:13:46;5.4;56.5
78461;SHT31;67755;51.986;5.696;2023-03-11T05:16:16;5.4;56.4
78461;SHT31;67755;51.986;5.696;2023-03-11T05:18:46;5.4;56.4
78461;SHT31;67755;51.986;5.696;2023-03-11T05:21:15;5.4;56.0
78461;SHT31;67755;51.986;5.696;2023-03-11T05:23:45;5.4;56.2
78461;SHT31;67755;51.986;5.696;2023-03-11T05:26:14;5.4;56.1
78461;SHT31;67755;51.986;5.696;2023-03-11T05:28:44;5.4;56.3
78461;SHT31;67755;51.986;5.696;2023-03-11T05:31:13;5.3;56.2
78461;SHT31;67755;51.986;5.696;2023-03-11T05:33:43;5.3;56.0
78461;SHT31;67755;51.986;5.696;2023-03-11T05:36:13;5.3;56.0
78461;SHT31;67755;51.986;5.696;2023-03-11T05:38:42;5.3;55.7
78461;SHT31;67755;51.986;5.696;2023-03-11T05:41:12;5.3;55.8
78461;SHT31;67755;51.986;5.696;2023-03-11T05:43:41;5.3;55.8
78461;SHT31;67755;51.986;5.696;2023-03-11T05:46:11;5.3;55.8
78461;SHT31;67755;51.986;5.696;2023-03-11T05:48:41;5.2;55.8
78461;SHT31;67755;51.986;5.696;2023-03-11T05:51:12;5.2;55.8
78461;SHT31;67755;51.986;5.696;2023-03-11T05:53:43;5.2;55.6
78461;SHT31;67755;51.986;5.696;2023-03-11T05:56:15;5.2;55.5
78461;SHT31;67755;51.986;5.696;2023-03-11T05:58:45;5.2;55.7
78461;SHT31;67755;51.986;5.696;2023-03-11T06:01:17;5.2;55.5
78461;SHT31;67755;51.986;5.696;2023-03-11T06:03:47;5.2;55.7
78461;SHT31;67755;51.986;5.696;2023-03-11T06:06:17;5.2;55.6
78461;SHT31;67755;51.986;5.696;2023-03-11T06:08:47;5.2;55.5
78461;SHT31;67755;51.986;5.696;2023-03-11T06:11:17;5.2;55.5
78461;SHT31;67755;51.986;5.696;2023-03-11T06:13:46;5.1;55.5
78461;SHT31;67755;51.986;5.696;2023-03-11T06:16:16;5.1;55.5
78461;SHT31;67755;51.986;5.696;2023-03-11T06:18:46;5.1;55.5
78461;SHT31;67755;51.986;5.696;2023-03-11T06:21:18;5.1;55.6
78461;SHT31;67755;51.986;5.696;2023-03-11T06:23:49;5.1;55.4
78461;SHT31;67755;51.986;5.696;2023-03-11T06:26:20;5.1;55.3
78461;SHT31;67755;51.986;5.696;2023-03-11T06:28:51;5.1;55.5
78461;SHT31;67755;51.986;5.696;2023-03-11T06:31:23;5.1;55.4
78461;SHT31;67755;51.986;5.696;2023-03-11T06:33:54;5.1;55.2
78461;SHT31;67755;51.986;5.696;2023-03-11T06:36:25;5.1;55.6
78461;SHT31;67755;51.986;5.696;2023-03-11T06:38:55;5.1;55.6
78461;SHT31;67755;51.986;5.696;2023-03-11T06:41:25;5.1;55.3
78461;SHT31;67755;51.986;5.696;2023-03-11T06:43:56;5.1;55.6
78461;SHT31;67755;51.986;5.696;2023-03-11T06:46:27;5.1;55.7
78461;SHT31;67755;51.986;5.696;2023-03-11T06:48:57;5.1;55.4
78461;SHT31;67755;51.986;5.696;2023-03-11T06:51:27;5.1;55.4
78461;SHT31;67755;51.986;5.696;2023-03-11T06:54:00;5.1;55.8
78461;SHT31;67755;51.986;5.696;2023-03-11T06:56:30;5.1;55.9
78461;SHT31;67755;51.986;5.696;2023-03-11T06:58:59;5.0;55.8
78461;SHT31;67755;51.986;5.696;2023-03-11T07:01:31;5.0;55.7
78461;SHT31;67755;51.986;5.696;2023-03-11T07:04:03;5.0;55.9
78461;SHT31;67755;51.986;5.696;2023-03-11T07:06:32;5.0;56.1
78461;SHT31;67755;51.986;5.696;2023-03-11T07:09:02;5.0;56.3
78461;SHT31;67755;51.986;5.696;2023-03-11T07:11:34;5.0;56.4
78461;SHT31;67755;51.986;5.696;2023-03-11T07:14:04;5.0;56.6
78461;SHT31;67755;51.986;5.696;2023-03-11T07:16:34;5.0;56.5
78461;SHT31;67755;51.986;5.696;2023-03-11T07:19:03;5.0;56.6
78461;SHT31;67755;51.986;5.696;2023-03-11T07:21:33;5.0;56.7
78461;SHT31;67755;51.986;5.696;2023-03-11T07:24:04;5.0;56.9
78461;SHT31;67755;51.986;5.696;2023-03-11T07:26:34;5.0;57.0
78461;SHT31;67755;51.986;5.696;2023-03-11T07:29:06;5.0;57.2
78461;SHT31;67755;51.986;5.696;2023-03-11T07:31:37;5.0;57.1
78461;SHT31;67755;51.986;5.696;2023-03-11T07:34:07;5.0;57.5
78461;SHT31;67755;51.986;5.696;2023-03-11T07:36:39;5.0;57.7
78461;SHT31;67755;51.986;5.696;2023-03-11T07:39:12;5.1;57.8
78461;SHT31;67755;51.986;5.696;2023-03-11T07:41:43;5.1;57.8
78461;SHT31;67755;51.986;5.696;2023-03-11T07:44:14;5.1;58.0
78461;SHT31;67755;51.986;5.696;2023-03-11T07:46:45;5.1;58.3
78461;SHT31;67755;51.986;5.696;2023-03-11T07:49:15;5.1;58.1
78461;SHT31;67755;51.986;5.696;2023-03-11T07:51:44;5.1;58.4
78461;SHT31;67755;51.986;5.696;2023-03-11T07:54:14;5.1;58.8
78461;SHT31;67755;51.986;5.696;2023-03-11T07:56:43;5.2;59.0
78461;SHT31;67755;51.986;5.696;2023-03-11T07:59:13;5.2;59.0
78461;SHT31;67755;51.986;5.696;2023-03-11T08:01:43;5.2;59.5
78461;SHT31;67755;51.986;5.696;2023-03-11T08:04:14;5.2;59.4
78461;SHT31;67755;51.986;5.696;2023-03-11T08:06:46;5.2;59.6
78461;SHT31;67755;51.986;5.696;2023-03-11T08:09:16;5.3;59.2
78461;SHT31;67755;51.986;5.696;2023-03-11T08:11:46;5.3;59.4
78461;SHT31;67755;51.986;5.696;2023-03-11T08:14:16;5.3;59.5
78461;SHT31;67755;51.986;5.696;2023-03-11T08:16:48;5.3;59.3
78461;SHT31;67755;51.986;5.696;2023-03-11T08:19:17;5.4;59.6
78461;SHT31;67755;51.986;5.696;2023-03-11T08:21:47;5.4;59.6
78461;SHT31;67755;51.986;5.696;2023-03-11T08:24:17;5.4;59.6
78461;SHT31;67755;51.986;5.696;2023-03-11T08:26:47;5.4;59.6
78461;SHT31;67755;51.986;5.696;2023-03-11T08:29:16;5.5;59.5
78461;SHT31;67755;51.986;5.696;2023-03-11T08:31:46;5.5;59.6
78461;SHT31;67755;51.986;5.696;2023-03-11T08:34:16;5.5;59.7
78461;SHT31;67755;51.986;5.696;2023-03-11T08:36:47;5.5;59.7
78461;SHT31;67755;51.986;5.696;2023-03-11T08:39:17;5.6;59.8
78461;SHT31;67755;51.986;5.696;2023-03-11T08:41:46;5.6;60.0
78461;SHT31;67755;51.986;5.696;2023-03-11T08:44:16;5.6;60.0
78461;SHT31;67755;51.986;5.696;2023-03-11T08:46:46;5.6;60.1
78461;SHT31;67755;51.986;5.696;2023-03-11T08:49:15;5.7;60.2
78461;SHT31;67755;51.986;5.696;2023-03-11T08:51:45;5.7;60.5
78461;SHT31;67755;51.986;5.696;2023-03-11T08:54:15;5.8;60.8
78461;SHT31;67755;51.986;5.696;2023-03-11T08:56:44;5.8;61.1
78461;SHT31;67755;51.986;5.696;2023-03-11T08:59:15;5.8;61.0
78461;SHT31;67755;51.986;5.696;2023-03-11T09:01:44;5.9;60.9
78461;SHT31;67755;51.986;5.696;2023-03-11T09:04:17;5.9;60.8
78461;SHT31;67755;51.986;5.696;2023-03-11T09:06:46;6.0;60.6
78461;SHT31;67755;51.986;5.696;2023-03-11T09:09:17;6.0;61.0
78461;SHT31;67755;51.986;5.696;2023-03-11T09:11:47;6.0;61.0
78461;SHT31;67755;51.986;5.696;2023-03-11T09:14:17;6.1;61.0
78461;SHT31;67755;51.986;5.696;2023-03-11T09:16:46;6.1;61.1
78461;SHT31;67755;51.986;5.696;2023-03-11T09:19:16;6.2;61.7
78461;SHT31;67755;51.986;5.696;2023-03-11T09:21:46;6.2;61.6
78461;SHT31;67755;51.986;5.696;2023-03-11T09:24:15;6.3;61.7
78461;SHT31;67755;51.986;5.696;2023-03-11T09:26:45;6.3;61.4
78461;SHT31;67755;51.986;5.696;2023-03-11T09:29:14;6.4;61.1
78461;SHT31;67755;51.986;5.696;2023-03-11T09:31:44;6.4;61.2
78461;SHT31;67755;51.986;5.696;2023-03-11T09:34:13;6.5;61.7
78461;SHT31;67755;51.986;5.696;2023-03-11T09:36:44;6.6;61.4
78461;SHT31;67755;51.986;5.696;2023-03-11T09:39:15;6.6;58.5
78461;SHT31;67755;51.986;5.696;2023-03-11T09:41:52;6.7;60.5
78461;SHT31;67755;51.986;5.696;2023-03-11T09:44:27;6.7;60.6
78461;SHT31;67755;51.986;5.696;2023-03-11T09:47:42;6.8;60.8
78461;SHT31;67755;51.986;5.696;2023-03-11T09:50:28;6.9;60.7
78461;SHT31;67755;51.986;5.696;2023-03-11T09:53:04;6.9;60.7
78461;SHT31;67755;51.986;5.696;2023-03-11T09:55:42;7.0;60.1
78461;SHT31;67755;51.986;5.696;2023-03-11T09:58:16;7.0;60.3
78461;SHT31;67755;51.986;5.696;2023-03-11T10:00:48;7.1;60.3
78461;SHT31;67755;51.986;5.696;2023-03-11T10:03:26;7.1;59.3
78461;SHT31;67755;51.986;5.696;2023-03-11T10:06:04;7.2;54.6
78461;SHT31;67755;51.986;5.696;2023-03-11T10:08:42;7.2;56.6
78461;SHT31;67755;51.986;5.696;2023-03-11T10:11:58;7.2;51.2
78461;SHT31;67755;51.986;5.696;2023-03-11T10:14:39;7.2;53.5
78461;SHT31;67755;51.986;5.696;2023-03-11T10:17:25;7.3;56.9
78461;SHT31;67755;51.986;5.696;2023-03-11T10:20:05;7.3;57.8
78461;SHT31;67755;51.986;5.696;2023-03-11T10:22:44;7.4;58.2
78461;SHT31;67755;51.986;5.696;2023-03-11T10:25:21;7.4;54.5
78461;SHT31;67755;51.986;5.696;2023-03-11T10:27:56;7.5;56.0
78461;SHT31;67755;51.986;5.696;2023-03-11T10:30:31;7.5;56.7
78461;SHT31;67755;51.986;5.696;2023-03-11T10:33:08;7.5;56.2
78461;SHT31;67755;51.986;5.696;2023-03-11T10:35:44;7.6;54.3
78461;SHT31;67755;51.986;5.696;2023-03-11T10:38:18;7.6;56.5
78461;SHT31;67755;51.986;5.696;2023-03-11T10:40:51;7.7;50.9
78461;SHT31;67755;51.986;5.696;2023-03-11T10:43:27;7.7;51.4
78461;SHT31;67755;51.986;5.696;2023-03-11T10:45:58;7.7;52.9
78461;SHT31;67755;51.986;5.696;2023-03-11T10:48:29;7.7;55.0
78461;SHT31;67755;51.986;5.696;2023-03-11T10:51:01;7.8;56.2
78461;SHT31;67755;51.986;5.696;2023-03-11T10:53:31;7.8;56.5
78461;SHT31;67755;51.986;5.696;2023-03-11T10:56:01;7.8;54.7
78461;SHT31;67755;51.986;5.696;2023-03-11T10:58:30;7.8;56.9
78461;SHT31;67755;51.986;5.696;2023-03-11T11:01:04;7.8;56.8
78461;SHT31;67755;51.986;5.696;2023-03-11T11:03:35;7.9;57.6
78461;SHT31;67755;51.986;5.696;2023-03-11T11:06:19;7.9;56.2
78461;SHT31;67755;51.986;5.696;2023-03-11T11:09:15;7.9;57.2
78461;SHT31;67755;51.986;5.696;2023-03-11T11:12:02;7.9;58.0
78461;SHT31;67755;51.986;5.696;2023-03-11T11:14:49;8.0;54.5
78461;SHT31;67755;51.986;5.696;2023-03-11T11:17:24;8.0;54.6
78461;SHT31;67755;51.986;5.696;2023-03-11T11:19:57;8.0;51.1
78461;SHT31;67755;51.986;5.696;2023-03-11T11:22:27;8.1;52.3
78461;SHT31;67755;51.986;5.696;2023-03-11T11:24:58;8.1;52.4
78461;SHT31;67755;51.986;5.696;2023-03-11T11:27:28;8.1;50.7
78461;SHT31;67755;51.986;5.696;2023-03-11T11:30:14;8.2;49.5
78461;SHT31;67755;51.986;5.696;2023-03-11T11:32:44;8.2;47.5
78461;SHT31;67755;51.986;5.696;2023-03-11T11:35:15;8.2;50.8
78461;SHT31;67755;51.986;5.696;2023-03-11T11:37:48;8.3;50.6
78461;SHT31;67755;51.986;5.696;2023-03-11T11:40:30;8.3;49.9
78461;SHT31;67755;51.986;5.696;2023-03-11T11:43:04;8.3;51.1
78461;SHT31;67755;51.986;5.696;2023-03-11T11:45:37;8.3;53.8
78461;SHT31;67755;51.986;5.696;2023-03-11T11:48:16;8.4;49.9
78461;SHT31;67755;51.986;5.696;2023-03-11T11:50:51;8.4;48.1
78461;SHT31;67755;51.986;5.696;2023-03-11T11:53:39;8.4;51.4
78461;SHT31;67755;51.986;5.696;2023-03-11T11:56:10;8.4;53.2
78461;SHT31;67755;51.986;5.696;2023-03-11T11:58:40;8.5;47.8
78461;SHT31;67755;51.986;5.696;2023-03-11T12:01:18;8.5;47.6
78461;SHT31;67755;51.986;5.696;2023-03-11T12:07:03;8.5;49.9
78461;SHT31;67755;51.986;5.696;2023-03-11T12:09:46;8.6;46.9
78461;SHT31;67755;51.986;5.696;2023-03-11T12:12:26;8.6;48.7
78461;SHT31;67755;51.986;5.696;2023-03-11T12:15:07;8.6;47.5
78461;SHT31;67755;51.986;5.696;2023-03-11T12:17:46;8.6;43.8
78461;SHT31;67755;51.986;5.696;2023-03-11T12:20:22;8.7;43.6
78461;SHT31;67755;51.986;5.696;2023-03-11T12:23:16;8.7;48.0
78461;SHT31;67755;51.986;5.696;2023-03-11T12:25:59;8.7;46.0
78461;SHT31;67755;51.986;5.696;2023-03-11T12:28:39;8.7;48.9
78461;SHT31;67755;51.986;5.696;2023-03-11T12:31:12;8.8;45.8
78461;SHT31;67755;51.986;5.696;2023-03-11T12:33:44;8.8;47.6
78461;SHT31;67755;51.986;5.696;2023-03-11T12:36:28;8.8;43.6
78461;SHT31;67755;51.986;5.696;2023-03-11T12:39:01;8.9;44.7
78461;SHT31;67755;51.986;5.696;2023-03-11T12:41:34;8.9;46.0
78461;SHT31;67755;51.986;5.696;2023-03-11T12:44:21;8.9;46.2
78461;SHT31;67755;51.986;5.696;2023-03-11T12:47:19;9.0;42.5
78461;SHT31;67755;51.986;5.696;2023-03-11T12:49:51;9.0;43.5
78461;SHT31;67755;51.986;5.696;2023-03-11T12:52:53;9.0;43.8
78461;SHT31;67755;51.986;5.696;2023-03-11T12:55:34;9.0;43.3
78461;SHT31;67755;51.986;5.696;2023-03-11T12:58:29;9.1;42.9
78461;SHT31;67755;51.986;5.696;2023-03-11T13:01:16;9.1;43.5
78461;SHT31;67755;51.986;5.696;2023-03-11T13:03:56;9.2;42.0
78461;SHT31;67755;51.986;5.696;2023-03-11T13:06:46;9.2;42.4
78461;SHT31;67755;51.986;5.696;2023-03-11T13:09:20;9.3;42.6
78461;SHT31;67755;51.986;5.696;2023-03-11T13:11:50;9.3;40.2
78461;SHT31;67755;51.986;5.696;2023-03-11T13:14:26;9.4;42.5
78461;SHT31;67755;51.986;5.696;2023-03-11T13:19:52;9.4;39.4
78461;SHT31;67755;51.986;5.696;2023-03-11T13:27:09;9.5;40.5
78461;SHT31;67755;51.986;5.696;2023-03-11T13:29:54;9.5;40.1
78461;SHT31;67755;51.986;5.696;2023-03-11T13:32:40;9.6;37.3
78461;SHT31;67755;51.986;5.696;2023-03-11T13:35:27;9.6;40.6
78461;SHT31;67755;51.986;5.696;2023-03-11T13:38:14;9.6;39.7
78461;SHT31;67755;51.986;5.696;2023-03-11T13:40:48;9.6;40.5
78461;SHT31;67755;51.986;5.696;2023-03-11T13:43:21;9.6;36.5
78461;SHT31;67755;51.986;5.696;2023-03-11T13:45:55;9.6;38.3
78461;SHT31;67755;51.986;5.696;2023-03-11T13:48:30;9.6;38.5
78461;SHT31;67755;51.986;5.696;2023-03-11T13:51:05;9.6;38.8
78461;SHT31;67755;51.986;5.696;2023-03-11T13:53:41;9.6;39.8
78461;SHT31;67755;51.986;5.696;2023-03-11T13:56:21;9.6;39.7
78461;SHT31;67755;51.986;5.696;2023-03-11T13:58:51;9.7;43.1
78461;SHT31;67755;51.986;5.696;2023-03-11T14:01:21;9.7;38.8
78461;SHT31;67755;51.986;5.696;2023-03-11T14:03:51;9.7;38.6
78461;SHT31;67755;51.986;5.696;2023-03-11T14:06:21;9.7;36.7
78461;SHT31;67755;51.986;5.696;2023-03-11T14:08:55;9.7;37.5
78461;SHT31;67755;51.986;5.696;2023-03-11T14:11:27;9.7;39.3
78461;SHT31;67755;51.986;5.696;2023-03-11T14:13:57;9.7;38.4
78461;SHT31;67755;51.986;5.696;2023-03-11T14:16:32;9.7;38.7
78461;SHT31;67755;51.986;5.696;2023-03-11T14:19:18;9.7;39.3
78461;SHT31;67755;51.986;5.696;2023-03-11T14:21:49;9.7;39.5
78461;SHT31;67755;51.986;5.696;2023-03-11T14:24:23;9.7;38.1
78461;SHT31;67755;51.986;5.696;2023-03-11T14:26:57;9.7;38.0
78461;SHT31;67755;51.986;5.696;2023-03-11T14:29:31;9.7;38.9
78461;SHT31;67755;51.986;5.696;2023-03-11T14:32:22;9.7;38.0
78461;SHT31;67755;51.986;5.696;2023-03-11T14:34:53;9.7;38.8
78461;SHT31;67755;51.986;5.696;2023-03-11T14:37:30;9.7;39.3
78461;SHT31;67755;51.986;5.696;2023-03-11T14:40:01;9.7;40.4
78461;SHT31;67755;51.986;5.696;2023-03-11T14:42:35;9.7;38.0
78461;SHT31;67755;51.986;5.696;2023-03-11T14:45:11;9.7;37.3
78461;SHT31;67755;51.986;5.696;2023-03-11T14:47:47;9.7;38.9
78461;SHT31;67755;51.986;5.696;2023-03-11T14:50:20;9.7;39.7
78461;SHT31;67755;51.986;5.696;2023-03-11T14:52:54;9.7;37.1
78461;SHT31;67755;51.986;5.696;2023-03-11T14:55:29;9.7;38.7
78461;SHT31;67755;51.986;5.696;2023-03-11T14:58:04;9.7;38.5
78461;SHT31;67755;51.986;5.696;2023-03-11T15:00:41;9.7;39.8
78461;SHT31;67755;51.986;5.696;2023-03-11T15:03:23;9.7;40.1
78461;SHT31;67755;51.986;5.696;2023-03-11T15:05:57;9.7;38.5
78461;SHT31;67755;51.986;5.696;2023-03-11T15:08:32;9.7;38.9
78461;SHT31;67755;51.986;5.696;2023-03-11T15:11:07;9.7;37.4
78461;SHT31;67755;51.986;5.696;2023-03-11T15:13:38;9.7;39.4
78461;SHT31;67755;51.986;5.696;2023-03-11T15:16:24;9.7;35.4
78461;SHT31;67755;51.986;5.696;2023-03-11T15:18:55;9.7;38.2
78461;SHT31;67755;51.986;5.696;2023-03-11T15:21:27;9.7;38.7
78461;SHT31;67755;51.986;5.696;2023-03-11T15:24:00;9.7;38.4
78461;SHT31;67755;51.986;5.696;2023-03-11T15:26:34;9.7;37.5
78461;SHT31;67755;51.986;5.696;2023-03-11T15:29:14;9.7;36.9
78461;SHT31;67755;51.986;5.696;2023-03-11T15:31:44;9.7;38.1
78461;SHT31;67755;51.986;5.696;2023-03-11T15:34:25;9.7;39.8
78461;SHT31;67755;51.986;5.696;2023-03-11T15:36:59;9.7;38.5
78461;SHT31;67755;51.986;5.696;2023-03-11T15:39:42;9.7;36.1
78461;SHT31;67755;51.986;5.696;2023-03-11T15:42:18;9.7;38.0
78461;SHT31;67755;51.986;5.696;2023-03-11T15:45:06;9.7;38.0
78461;SHT31;67755;51.986;5.696;2023-03-11T15:47:39;9.7;38.1
78461;SHT31;67755;51.986;5.696;2023-03-11T15:50:20;9.6;38.3
78461;SHT31;67755;51.986;5.696;2023-03-11T15:52:53;9.6;39.4
78461;SHT31;67755;51.986;5.696;2023-03-11T15:55:25;9.6;39.8
78461;SHT31;67755;51.986;5.696;2023-03-11T15:58:01;9.6;42.1
78461;SHT31;67755;51.986;5.696;2023-03-11T16:00:32;9.6;42.0
78461;SHT31;67755;51.986;5.696;2023-03-11T16:03:03;9.6;42.0
78461;SHT31;67755;51.986;5.696;2023-03-11T16:05:33;9.6;39.1
78461;SHT31;67755;51.986;5.696;2023-03-11T16:08:02;9.6;40.4
78461;SHT31;67755;51.986;5.696;2023-03-11T16:10:32;9.6;40.1
78461;SHT31;67755;51.986;5.696;2023-03-11T16:13:02;9.5;39.5
78461;SHT31;67755;51.986;5.696;2023-03-11T16:15:35;9.5;42.7
78461;SHT31;67755;51.986;5.696;2023-03-11T16:18:07;9.5;39.3
78461;SHT31;67755;51.986;5.696;2023-03-11T16:20:39;9.5;39.8
78461;SHT31;67755;51.986;5.696;2023-03-11T16:23:16;9.5;37.8
78461;SHT31;67755;51.986;5.696;2023-03-11T16:25:48;9.4;39.6
78461;SHT31;67755;51.986;5.696;2023-03-11T16:28:18;9.4;38.7
78461;SHT31;67755;51.986;5.696;2023-03-11T16:30:49;9.4;40.5
78461;SHT31;67755;51.986;5.696;2023-03-11T16:33:19;9.4;40.9
78461;SHT31;67755;51.986;5.696;2023-03-11T16:35:49;9.3;40.0
78461;SHT31;67755;51.986;5.696;2023-03-11T16:38:19;9.3;37.5
78461;SHT31;67755;51.986;5.696;2023-03-11T16:40:54;9.3;40.8
78461;SHT31;67755;51.986;5.696;2023-03-11T16:43:26;9.2;39.0
78461;SHT31;67755;51.986;5.696;2023-03-11T16:45:56;9.2;36.8
78461;SHT31;67755;51.986;5.696;2023-03-11T16:48:28;9.2;39.9
78461;SHT31;67755;51.986;5.696;2023-03-11T16:50:57;9.1;35.5
78461;SHT31;67755;51.986;5.696;2023-03-11T16:53:29;9.1;38.7
78461;SHT31;67755;51.986;5.696;2023-03-11T16:55:59;9.0;40.8
78461;SHT31;67755;51.986;5.696;2023-03-11T16:58:29;9.0;41.1
78461;SHT31;67755;51.986;5.696;2023-03-11T17:00:58;9.0;43.5
78461;SHT31;67755;51.986;5.696;2023-03-11T17:03:28;9.0;43.9
78461;SHT31;67755;51.986;5.696;2023-03-11T17:06:02;8.9;42.1